createdAt,value
2017-12-22T16:05:46.743Z,35.85
2017-12-22T16:08:14.332Z,35.83
2017-12-22T16:10:41.892Z,35.92
2017-12-22T16:13:09.449Z,35.73
2017-12-22T16:15:36.973Z,35.65
2017-12-22T16:18:04.532Z,35.88
2017-12-22T16:20:32.037Z,35.90
2017-12-22T16:22:59.559Z,36.05
2017-12-22T16:25:27.047Z,36.21
2017-12-22T16:27:54.611Z,36.63
2017-12-22T16:30:22.138Z,36.96
2017-12-22T16:32:49.780Z,37.12
2017-12-22T16:35:17.344Z,37.28
2017-12-22T16:37:44.866Z,37.77
2017-12-22T16:40:12.419Z,37.96
2017-12-22T16:42:39.986Z,38.07
2017-12-22T16:45:07.575Z,38.01
2017-12-22T16:47:35.137Z,37.56
2017-12-22T16:50:02.633Z,37.62
2017-12-22T16:52:30.178Z,37.70
2017-12-22T16:54:57.755Z,37.83
2017-12-22T16:57:25.324Z,37.82
2017-12-22T16:59:52.858Z,37.75
2017-12-22T17:02:20.380Z,38.06
2017-12-22T17:04:47.942Z,38.27
2017-12-22T17:07:15.670Z,38.58
2017-12-22T17:09:43.178Z,38.68
2017-12-22T17:12:10.732Z,41.36
2017-12-22T17:14:38.285Z,41.85
2017-12-22T17:17:05.851Z,41.06
2017-12-22T17:19:33.343Z,41.16
2017-12-22T17:22:00.954Z,40.87
2017-12-22T17:24:28.523Z,40.96
2017-12-22T17:26:56.029Z,41.12
2017-12-22T17:29:23.623Z,41.23
2017-12-22T17:31:51.186Z,41.21
2017-12-22T17:34:18.743Z,41.12
2017-12-22T17:36:46.338Z,40.95
2017-12-22T17:39:13.891Z,41.43
2017-12-22T17:41:41.373Z,41.35
2017-12-22T17:44:08.903Z,41.45
2017-12-22T17:46:36.468Z,41.39
2017-12-22T17:49:04.031Z,40.80
2017-12-22T17:51:31.552Z,40.61
2017-12-22T17:53:59.112Z,40.41
2017-12-22T17:56:26.613Z,40.55
2017-12-22T17:58:54.206Z,41.45
2017-12-22T18:01:21.695Z,42.15
2017-12-22T18:03:49.185Z,42.66
2017-12-22T18:06:16.843Z,43.18
2017-12-22T18:08:44.359Z,43.87
2017-12-22T18:11:11.866Z,45.15
2017-12-22T18:13:39.388Z,45.50
2017-12-22T18:16:06.878Z,45.69
2017-12-22T18:18:34.436Z,45.96
2017-12-22T18:21:02.052Z,46.40
2017-12-22T18:23:29.549Z,46.83
2017-12-22T18:25:57.054Z,46.73
2017-12-22T18:28:24.644Z,46.65
2017-12-22T18:30:52.130Z,46.54
2017-12-22T18:33:19.692Z,46.95
2017-12-22T18:35:47.220Z,46.97
2017-12-22T18:38:14.706Z,46.73
2017-12-22T18:40:42.213Z,46.21
2017-12-22T18:43:09.810Z,46.18
2017-12-22T18:45:37.297Z,45.96
2017-12-22T18:48:04.790Z,45.56
2017-12-22T18:50:32.305Z,45.25
2017-12-22T18:52:59.901Z,45.14
2017-12-22T18:55:27.452Z,45.11
2017-12-22T18:57:54.987Z,45.22
2017-12-22T19:00:22.487Z,44.91
2017-12-22T19:02:50.050Z,44.66
2017-12-22T19:05:17.574Z,44.49
2017-12-22T19:07:45.054Z,44.52
2017-12-22T19:10:12.545Z,44.33
2017-12-22T19:12:40.072Z,43.98
2017-12-22T19:15:07.573Z,43.73
2017-12-22T19:20:17.764Z,43.88
2017-12-22T19:22:45.333Z,43.65
2017-12-22T19:25:12.888Z,43.22
2017-12-22T19:27:40.491Z,42.64
2017-12-22T19:30:07.978Z,42.25
2017-12-22T19:32:35.527Z,42.23
2017-12-22T19:35:03.054Z,42.32
2017-12-22T19:37:30.602Z,42.20
2017-12-22T19:39:58.160Z,42.17
2017-12-22T19:42:25.688Z,42.13
2017-12-22T19:44:53.178Z,41.89
2017-12-22T19:47:20.666Z,41.95
2017-12-22T19:49:48.229Z,41.87
2017-12-22T19:52:15.716Z,41.74
2017-12-22T19:54:43.304Z,41.66
2017-12-22T19:57:10.805Z,41.75
2017-12-22T19:59:38.289Z,41.76
2017-12-22T20:02:05.884Z,41.80
2017-12-22T20:04:33.438Z,41.80
2017-12-22T20:07:00.923Z,41.83
2017-12-22T20:09:28.454Z,41.59
2017-12-22T20:11:56.007Z,41.45
2017-12-22T20:14:23.559Z,41.55
2017-12-22T20:16:51.143Z,41.52
2017-12-22T20:19:18.625Z,41.58
2017-12-22T20:21:46.110Z,41.52
2017-12-22T20:24:13.629Z,41.42
2017-12-22T20:26:41.189Z,41.28
2017-12-22T20:29:08.687Z,41.19
2017-12-22T20:31:36.200Z,41.05
2017-12-22T20:34:03.767Z,40.70
2017-12-22T20:36:31.325Z,40.73
2017-12-22T20:38:58.919Z,40.78
2017-12-22T20:41:26.414Z,40.67
2017-12-22T20:43:53.922Z,40.65
2017-12-22T20:46:21.444Z,40.61
2017-12-22T20:48:48.934Z,40.53
2017-12-22T20:51:16.425Z,40.56
2017-12-22T20:53:43.959Z,40.42
2017-12-22T20:56:11.438Z,40.32
2017-12-22T20:58:38.990Z,40.09
2017-12-22T21:01:06.502Z,40.20
2017-12-22T21:03:34.010Z,40.24
2017-12-22T21:06:01.525Z,40.14
2017-12-22T21:08:29.049Z,40.17
2017-12-22T21:10:56.534Z,40.18
2017-12-22T21:13:24.047Z,40.08
2017-12-22T21:15:51.644Z,40.04
2017-12-22T21:18:19.203Z,40.03
2017-12-22T21:20:46.775Z,39.96
2017-12-22T21:23:14.289Z,39.69
2017-12-22T21:25:41.844Z,39.50
2017-12-22T21:28:09.433Z,39.52
2017-12-22T21:30:36.982Z,39.42
2017-12-22T21:33:04.465Z,39.40
2017-12-22T21:35:32.024Z,39.51
2017-12-22T21:37:59.606Z,39.50
2017-12-22T21:40:27.190Z,39.37
2017-12-22T21:42:54.687Z,39.15
2017-12-22T21:45:22.201Z,38.88
2017-12-22T21:47:49.698Z,38.70
2017-12-22T21:50:17.195Z,38.51
2017-12-22T21:52:44.779Z,38.37
2017-12-22T21:55:12.311Z,38.19
2017-12-22T21:57:39.844Z,38.08
2017-12-22T22:00:07.368Z,38.08
2017-12-22T22:02:34.869Z,38.02
2017-12-22T22:05:02.430Z,37.94
2017-12-22T22:07:29.978Z,37.98
2017-12-22T22:09:57.474Z,37.86
2017-12-22T22:12:24.957Z,37.71
2017-12-22T22:14:52.553Z,37.62
2017-12-22T22:17:20.050Z,37.51
2017-12-22T22:19:47.538Z,37.47
2017-12-22T22:22:15.137Z,37.52
2017-12-22T22:24:42.627Z,37.51
2017-12-22T22:27:10.175Z,37.52
2017-12-22T22:29:37.760Z,37.46
2017-12-22T22:32:05.326Z,37.44
2017-12-22T22:34:32.822Z,37.31
2017-12-22T22:37:00.412Z,37.09
2017-12-22T22:39:27.967Z,37.05
2017-12-22T22:41:55.455Z,36.89
2017-12-22T22:44:23.035Z,36.91
2017-12-22T22:46:50.592Z,36.95
2017-12-22T22:49:18.134Z,37.04
2017-12-22T22:51:45.615Z,37.03
2017-12-22T22:54:13.168Z,37.05
2017-12-22T22:56:40.670Z,36.99
2017-12-22T22:59:08.195Z,36.85
2017-12-22T23:01:35.686Z,36.78
2017-12-22T23:04:03.178Z,36.75
2017-12-22T23:06:30.777Z,36.70
2017-12-22T23:08:58.306Z,36.74
2017-12-22T23:11:25.859Z,36.76
2017-12-22T23:13:53.460Z,36.75
2017-12-22T23:16:21.021Z,36.74
2017-12-22T23:18:48.608Z,36.65
2017-12-22T23:21:16.127Z,36.65
2017-12-22T23:23:43.634Z,36.72
2017-12-22T23:26:11.184Z,36.68
2017-12-22T23:28:38.781Z,36.70
2017-12-22T23:31:06.341Z,36.62
2017-12-22T23:33:33.833Z,36.49
2017-12-22T23:36:01.415Z,36.50
2017-12-22T23:38:28.968Z,36.44
2017-12-22T23:40:56.459Z,36.24
2017-12-22T23:43:24.071Z,36.33
2017-12-22T23:45:51.620Z,36.33
2017-12-22T23:48:19.175Z,36.32
2017-12-22T23:50:46.708Z,36.32
2017-12-22T23:53:14.191Z,36.23
2017-12-22T23:55:41.678Z,36.12
2017-12-22T23:58:09.255Z,36.03
